createdAt,value
2018-03-23T00:00:36.860Z,16.37
2018-03-23T00:03:04.391Z,16.93
2018-03-23T00:05:31.883Z,17.17
2018-03-23T00:07:59.455Z,17.77
2018-03-23T00:10:27.008Z,16.40
2018-03-23T00:12:54.541Z,18.33
2018-03-23T00:15:22.045Z,15.30
2018-03-23T00:17:49.581Z,15.60
2018-03-23T00:20:17.080Z,18.10
2018-03-23T00:22:44.600Z,19.17
2018-03-23T00:25:12.101Z,16.47
2018-03-23T00:27:39.617Z,17.07
2018-03-23T00:30:07.124Z,18.53
2018-03-23T00:32:34.651Z,21.20
2018-03-23T00:35:02.151Z,19.10
2018-03-23T00:37:29.649Z,19.93
2018-03-23T00:39:57.209Z,21.63
2018-03-23T00:42:24.767Z,19.53
2018-03-23T00:44:52.300Z,18.33
2018-03-23T00:47:19.895Z,20.70
2018-03-23T00:49:47.429Z,19.63
2018-03-23T00:52:14.950Z,19.03
2018-03-23T00:54:42.463Z,23.87
2018-03-23T00:57:10.132Z,23.70
2018-03-23T00:59:37.657Z,24.73
2018-03-23T01:02:05.181Z,34.20
2018-03-23T01:04:32.700Z,29.73
2018-03-23T01:07:00.272Z,27.80
2018-03-23T01:09:27.831Z,28.23
2018-03-23T01:11:55.331Z,27.37
2018-03-23T01:14:22.848Z,28.53
2018-03-23T01:16:50.357Z,26.27
2018-03-23T01:19:17.880Z,23.90
2018-03-23T01:21:45.432Z,29.60
2018-03-23T01:24:12.992Z,27.33
2018-03-23T01:26:40.524Z,25.23
2018-03-23T01:29:08.017Z,23.43
2018-03-23T01:31:35.543Z,23.93
2018-03-23T01:34:03.040Z,27.47
2018-03-23T01:36:30.600Z,27.83
2018-03-23T01:38:58.072Z,26.43
2018-03-23T01:41:25.696Z,26.03
2018-03-23T01:43:53.269Z,22.80
2018-03-23T01:46:20.885Z,22.60
2018-03-23T01:48:48.403Z,21.87
2018-03-23T01:51:15.923Z,25.13
2018-03-23T01:53:45.151Z,23.47
2018-03-23T01:56:12.677Z,22.93
2018-03-23T01:58:40.243Z,21.77
2018-03-23T02:01:07.788Z,21.50
2018-03-23T02:03:35.367Z,22.63
2018-03-23T02:06:02.947Z,23.57
2018-03-23T02:08:30.463Z,22.07
2018-03-23T02:10:57.975Z,21.57
2018-03-23T02:13:25.541Z,23.57
2018-03-23T02:15:53.351Z,22.63
2018-03-23T02:18:20.847Z,22.03
2018-03-23T02:20:48.403Z,19.97
2018-03-23T02:23:15.900Z,21.13
2018-03-23T02:25:43.513Z,21.77
2018-03-23T02:28:11.015Z,21.97
2018-03-23T02:30:38.537Z,23.53
2018-03-23T02:33:06.088Z,26.80
2018-03-23T02:35:33.587Z,22.40
2018-03-23T02:38:01.104Z,24.47
2018-03-23T02:40:28.600Z,24.07
2018-03-23T02:42:56.125Z,24.80
2018-03-23T02:45:23.659Z,24.83
2018-03-23T02:47:51.205Z,25.70
2018-03-23T02:50:18.744Z,30.43
2018-03-23T02:52:46.260Z,27.00
2018-03-23T02:55:13.778Z,27.07
2018-03-23T02:57:41.313Z,28.30
2018-03-23T03:00:08.808Z,25.20
2018-03-23T03:02:36.396Z,24.00
2018-03-23T03:05:03.938Z,24.43
2018-03-23T03:07:31.549Z,25.13
2018-03-23T03:09:59.073Z,24.20
2018-03-23T03:12:26.839Z,23.63
2018-03-23T03:14:54.360Z,21.77
2018-03-23T03:17:21.900Z,24.73
2018-03-23T03:19:49.388Z,25.93
2018-03-23T03:22:16.984Z,24.87
2018-03-23T03:24:44.479Z,26.93
2018-03-23T03:27:12.111Z,29.37
2018-03-23T03:29:39.624Z,23.93
2018-03-23T03:32:07.151Z,24.83
2018-03-23T03:34:34.675Z,21.07
2018-03-23T03:37:02.200Z,25.87
2018-03-23T03:39:29.711Z,27.67
2018-03-23T03:41:57.259Z,27.17
2018-03-23T03:44:24.764Z,27.60
2018-03-23T03:46:52.253Z,28.70
2018-03-23T03:49:19.767Z,33.43
2018-03-23T03:51:47.272Z,25.70
2018-03-23T03:54:14.796Z,27.30
2018-03-23T03:56:42.289Z,23.20
2018-03-23T03:59:09.828Z,22.40
2018-03-23T04:01:37.347Z,25.50
2018-03-23T04:04:04.871Z,21.20
2018-03-23T04:06:32.412Z,23.87
2018-03-23T04:08:59.937Z,24.97
2018-03-23T04:11:27.447Z,24.23
2018-03-23T04:13:54.963Z,22.10
2018-03-23T04:16:22.459Z,24.10
2018-03-23T04:18:49.973Z,21.03
2018-03-23T04:21:17.463Z,22.40
2018-03-23T04:23:44.999Z,20.07
2018-03-23T04:26:12.503Z,21.47
2018-03-23T04:28:40.041Z,21.83
2018-03-23T04:31:07.540Z,19.37
2018-03-23T04:33:35.060Z,19.30
2018-03-23T04:36:02.561Z,31.90
2018-03-23T04:38:30.088Z,24.30
2018-03-23T04:40:57.579Z,27.53
2018-03-23T04:43:25.088Z,28.60
2018-03-23T04:45:52.621Z,29.13
2018-03-23T04:48:20.116Z,30.53
2018-03-23T04:50:47.705Z,28.17
2018-03-23T04:53:15.224Z,27.17
2018-03-23T04:55:42.815Z,28.43
2018-03-23T04:58:10.374Z,30.77
2018-03-23T05:00:37.892Z,31.63
2018-03-23T05:03:05.390Z,30.63
2018-03-23T05:05:32.964Z,34.10
2018-03-23T05:08:00.511Z,35.63
2018-03-23T05:10:28.072Z,37.13
2018-03-23T05:12:55.565Z,34.27
2018-03-23T05:15:23.159Z,34.57
2018-03-23T05:17:50.723Z,33.20
2018-03-23T05:20:18.275Z,33.67
2018-03-23T05:22:45.875Z,32.00
2018-03-23T05:25:13.403Z,33.47
2018-03-23T05:27:40.913Z,29.03
2018-03-23T05:30:08.436Z,30.97
2018-03-23T05:32:35.955Z,29.67
2018-03-23T05:35:03.481Z,30.37
2018-03-23T05:37:30.967Z,30.27
2018-03-23T05:39:58.497Z,29.33
2018-03-23T05:42:26.060Z,28.87
2018-03-23T05:44:53.620Z,30.03
2018-03-23T05:47:21.148Z,29.97
2018-03-23T05:49:48.644Z,30.93
2018-03-23T05:52:16.192Z,29.00
2018-03-23T05:54:43.721Z,28.37
2018-03-23T05:57:11.241Z,25.00
2018-03-23T05:59:38.824Z,25.67
2018-03-23T06:02:06.350Z,25.93
2018-03-23T06:04:33.839Z,24.43
2018-03-23T06:07:01.453Z,27.03
2018-03-23T06:09:28.995Z,23.93
2018-03-23T06:11:56.526Z,24.27
2018-03-23T06:14:24.043Z,24.47
2018-03-23T06:16:51.585Z,23.17
2018-03-23T06:19:19.087Z,26.27
2018-03-23T06:21:46.604Z,21.90
2018-03-23T06:24:14.109Z,25.23
2018-03-23T06:26:41.716Z,26.63
2018-03-23T06:29:09.259Z,24.17
2018-03-23T06:31:36.779Z,26.33
2018-03-23T06:34:04.276Z,25.30
2018-03-23T06:36:31.848Z,25.43
2018-03-23T06:38:59.424Z,25.90
2018-03-23T06:41:27.002Z,26.17
2018-03-23T06:43:54.528Z,25.87
2018-03-23T06:46:22.108Z,22.53
2018-03-23T06:48:49.643Z,22.13
2018-03-23T06:51:17.140Z,20.87
2018-03-23T06:53:44.680Z,21.00
2018-03-23T06:56:12.220Z,19.27
2018-03-23T06:58:39.807Z,15.83
2018-03-23T07:01:07.320Z,16.43
2018-03-23T07:03:34.835Z,18.03
2018-03-23T07:06:02.329Z,16.00
2018-03-23T07:08:29.855Z,14.30
2018-03-23T07:10:57.352Z,12.83
2018-03-23T07:13:24.882Z,14.47
2018-03-23T07:15:52.379Z,15.97
2018-03-23T07:18:19.960Z,14.60
2018-03-23T07:20:47.511Z,13.80
2018-03-23T07:23:15.053Z,14.00
2018-03-23T07:25:42.608Z,16.23
2018-03-23T07:28:10.173Z,13.97
2018-03-23T07:30:37.742Z,13.30
2018-03-23T07:33:05.278Z,16.37
2018-03-23T07:35:32.772Z,14.23
2018-03-23T07:38:00.292Z,11.53
2018-03-23T07:40:27.781Z,11.50
2018-03-23T07:43:03.336Z,10.83
2018-03-23T07:45:35.007Z,11.57
2018-03-23T07:48:05.920Z,14.80
2018-03-23T07:50:36.204Z,11.33
2018-03-23T07:53:04.680Z,13.00
2018-03-23T07:55:35.435Z,11.67
2018-03-23T07:58:07.624Z,11.93
2018-03-23T08:00:36.076Z,11.97
2018-03-23T08:03:06.530Z,11.50
2018-03-23T08:05:38.488Z,11.80
2018-03-23T08:08:08.237Z,14.60
2018-03-23T08:10:38.960Z,11.90
2018-03-23T08:13:11.003Z,12.47
2018-03-23T08:15:40.523Z,13.43
2018-03-23T08:18:08.812Z,14.60
2018-03-23T08:20:37.316Z,15.10
2018-03-23T08:23:08.309Z,12.53
2018-03-23T08:25:38.262Z,12.27
2018-03-23T08:28:08.460Z,12.93
2018-03-23T08:30:38.723Z,12.43
2018-03-23T08:33:10.242Z,12.97
2018-03-23T08:35:39.030Z,11.90
2018-03-23T08:38:07.324Z,13.23
2018-03-23T08:40:35.808Z,13.33
2018-03-23T08:43:05.154Z,13.10
2018-03-23T08:45:35.110Z,14.03
2018-03-23T08:48:04.707Z,12.37
2018-03-23T08:50:34.216Z,12.37
2018-03-23T08:53:03.135Z,12.63
2018-03-23T08:55:31.637Z,13.43
2018-03-23T08:58:00.923Z,12.10
2018-03-23T09:00:30.493Z,12.27
2018-03-23T09:03:00.512Z,12.23
2018-03-23T09:05:31.262Z,13.10
2018-03-23T09:08:00.221Z,11.90
2018-03-23T09:10:31.367Z,12.07
2018-03-23T09:13:03.804Z,12.43
2018-03-23T09:15:33.764Z,11.60
2018-03-23T09:18:02.693Z,14.07
2018-03-23T09:20:32.036Z,12.27
2018-03-23T09:23:16.476Z,11.43
2018-03-23T09:25:46.412Z,16.93
2018-03-23T09:28:17.433Z,15.63
2018-03-23T09:30:49.659Z,14.37
2018-03-23T09:33:21.952Z,13.13
2018-03-23T09:35:50.925Z,13.00
2018-03-23T09:38:24.479Z,11.77
2018-03-23T09:40:55.367Z,16.07
2018-03-23T09:43:24.595Z,13.57
2018-03-23T09:45:53.142Z,14.40
2018-03-23T09:48:27.470Z,12.87
2018-03-23T09:50:58.354Z,15.70
2018-03-23T09:53:29.514Z,12.40
2018-03-23T09:58:42.918Z,11.97
2018-03-23T10:01:20.269Z,11.93
2018-03-23T10:03:49.411Z,11.47
2018-03-23T10:06:18.141Z,11.90
2018-03-23T10:08:47.154Z,10.67
2018-03-23T10:11:16.295Z,11.37
2018-03-23T10:13:47.529Z,12.17
2018-03-23T10:16:17.748Z,12.10
2018-03-23T10:18:46.400Z,11.17
2018-03-23T10:21:14.707Z,12.50
2018-03-23T10:23:46.223Z,10.77
2018-03-23T10:26:16.659Z,11.80
2018-03-23T10:28:45.212Z,11.10
2018-03-23T10:31:14.730Z,11.60
2018-03-23T10:33:42.942Z,10.67
2018-03-23T10:36:11.648Z,10.93
2018-03-23T10:38:42.540Z,10.73
2018-03-23T10:41:15.377Z,10.73
2018-03-23T10:43:45.441Z,10.50
2018-03-23T10:46:17.666Z,8.87
2018-03-23T10:48:48.059Z,8.67
2018-03-23T10:51:17.194Z,8.10
2018-03-23T10:53:46.982Z,8.10
2018-03-23T10:56:22.340Z,7.13
2018-03-23T10:59:12.447Z,8.50
2018-03-23T11:01:45.589Z,7.17
2018-03-23T11:04:15.294Z,7.37
2018-03-23T11:06:45.867Z,6.97
2018-03-23T11:09:18.893Z,7.90
2018-03-23T11:11:46.500Z,6.53
2018-03-23T11:14:14.000Z,7.12
2018-03-23T11:16:41.615Z,5.93
2018-03-23T11:19:09.099Z,7.20
2018-03-23T11:21:36.644Z,7.43
2018-03-23T11:24:04.666Z,7.27
2018-03-23T11:26:32.228Z,6.73
2018-03-23T11:28:59.735Z,6.77
2018-03-23T11:31:27.253Z,6.57
2018-03-23T11:33:54.843Z,6.30
2018-03-23T11:36:22.355Z,5.80
2018-03-23T11:38:49.874Z,5.18
2018-03-23T11:41:17.387Z,5.80
2018-03-23T11:43:45.105Z,5.33
2018-03-23T11:46:12.624Z,5.53
2018-03-23T11:48:40.203Z,5.13
2018-03-23T11:51:07.702Z,6.80
2018-03-23T11:53:35.339Z,5.13
2018-03-23T11:56:02.841Z,5.53
2018-03-23T11:58:30.400Z,6.00
2018-03-23T12:00:57.911Z,7.97
2018-03-23T12:03:25.424Z,7.10
2018-03-23T12:05:52.915Z,6.63
2018-03-23T12:08:20.440Z,6.77
2018-03-23T12:10:47.932Z,9.90
2018-03-23T12:13:15.464Z,21.47
2018-03-23T12:15:42.978Z,6.90
2018-03-23T12:18:10.501Z,6.23
2018-03-23T12:20:37.987Z,8.33
2018-03-23T12:23:05.508Z,7.67
2018-03-23T12:25:33.104Z,6.43
2018-03-23T12:28:00.643Z,7.10
2018-03-23T12:30:28.226Z,8.40
2018-03-23T12:32:55.744Z,6.47
2018-03-23T12:35:23.232Z,6.70
2018-03-23T12:37:50.793Z,6.60
2018-03-23T12:40:18.356Z,6.77
2018-03-23T12:42:45.928Z,6.77
2018-03-23T12:45:13.445Z,5.53
2018-03-23T12:47:40.976Z,5.80
2018-03-23T12:50:08.535Z,5.40
2018-03-23T12:52:36.036Z,5.60
2018-03-23T12:55:03.535Z,5.00
2018-03-23T12:57:31.048Z,5.93
2018-03-23T12:59:58.543Z,5.05
2018-03-23T13:02:26.070Z,6.20
2018-03-23T13:04:53.630Z,5.22
2018-03-23T13:07:21.193Z,5.45
2018-03-23T13:09:48.719Z,6.55
2018-03-23T13:12:16.215Z,5.47
2018-03-23T13:14:43.735Z,4.95
2018-03-23T13:17:11.323Z,5.12
2018-03-23T13:19:38.888Z,4.43
2018-03-23T13:22:06.409Z,4.25
2018-03-23T13:24:33.924Z,4.95
2018-03-23T13:27:01.485Z,4.57
2018-03-23T13:29:29.004Z,5.37
2018-03-23T13:31:56.491Z,4.65
2018-03-23T13:34:24.040Z,5.28
2018-03-23T13:36:51.536Z,4.72
2018-03-23T13:39:19.081Z,6.07
2018-03-23T13:41:46.570Z,4.37
2018-03-23T13:44:14.101Z,4.50
2018-03-23T13:46:41.613Z,4.97
2018-03-23T13:49:09.151Z,4.62
2018-03-23T13:51:36.643Z,3.92
2018-03-23T13:54:04.168Z,3.65
2018-03-23T13:56:31.667Z,3.72
2018-03-23T13:59:04.887Z,3.70
2018-03-23T14:01:37.948Z,3.90
2018-03-23T14:04:05.483Z,3.78
2018-03-23T14:06:32.996Z,3.67
2018-03-23T14:09:00.633Z,3.60
2018-03-23T14:11:28.125Z,3.60
2018-03-23T14:13:55.761Z,3.72
2018-03-23T14:16:23.329Z,4.20
2018-03-23T14:18:50.843Z,4.25
2018-03-23T14:21:18.354Z,4.45
2018-03-23T14:23:45.902Z,4.32
2018-03-23T14:26:13.439Z,4.63
2018-03-23T14:28:41.050Z,4.30
2018-03-23T14:31:08.560Z,7.87
2018-03-23T14:33:36.133Z,4.20
2018-03-23T14:36:03.710Z,4.20
2018-03-23T14:38:31.263Z,4.30
2018-03-23T14:40:58.756Z,4.20
2018-03-23T14:43:26.282Z,4.73
2018-03-23T14:45:53.947Z,3.93
2018-03-23T14:48:21.600Z,4.63
2018-03-23T14:50:49.105Z,3.70
2018-03-23T14:53:16.632Z,4.17
2018-03-23T14:55:44.161Z,3.90
2018-03-23T14:58:11.733Z,3.87
2018-03-23T15:00:39.243Z,3.90
2018-03-23T15:03:06.750Z,4.37
2018-03-23T15:05:34.327Z,4.37
2018-03-23T15:08:01.831Z,4.70
2018-03-23T15:10:29.353Z,4.87
2018-03-23T15:12:56.992Z,3.27
2018-03-23T15:15:24.757Z,3.90
2018-03-23T15:17:52.354Z,3.92
2018-03-23T15:20:20.095Z,7.40
2018-03-23T15:22:47.685Z,3.83
2018-03-23T15:25:15.401Z,3.80
2018-03-23T15:27:42.960Z,4.10
2018-03-23T15:30:10.609Z,3.50
2018-03-23T15:32:38.187Z,4.43
2018-03-23T15:35:05.861Z,4.20
2018-03-23T15:37:33.524Z,4.30
2018-03-23T15:40:01.187Z,10.57
2018-03-23T15:42:28.831Z,4.70
2018-03-23T15:44:56.512Z,4.00
2018-03-23T15:47:24.173Z,4.20
2018-03-23T15:49:51.836Z,4.10
2018-03-23T15:52:19.391Z,4.50
2018-03-23T15:54:47.038Z,4.10
2018-03-23T15:57:14.718Z,4.60
2018-03-23T15:59:42.484Z,3.67
2018-03-23T16:02:10.093Z,4.30
2018-03-23T16:04:37.705Z,3.83
2018-03-23T16:07:05.264Z,5.13
2018-03-23T16:09:32.928Z,4.13
2018-03-23T16:12:00.469Z,5.13
2018-03-23T16:14:28.150Z,5.53
2018-03-23T16:16:56.838Z,3.33
2018-03-23T16:19:25.418Z,4.80
2018-03-23T16:21:52.978Z,4.00
2018-03-23T16:24:20.642Z,3.80
2018-03-23T16:26:48.200Z,7.03
2018-03-23T16:29:15.742Z,7.23
2018-03-23T16:31:43.310Z,4.23
2018-03-23T16:34:10.852Z,3.63
2018-03-23T16:36:38.577Z,4.90
2018-03-23T16:39:06.209Z,4.23
2018-03-23T16:41:33.846Z,5.40
2018-03-23T16:44:01.557Z,3.87
2018-03-23T16:46:29.933Z,6.57
2018-03-23T16:48:57.706Z,3.80
2018-03-23T16:51:25.317Z,6.33
2018-03-23T16:53:52.997Z,4.00
2018-03-23T16:56:20.686Z,3.93
2018-03-23T16:58:48.256Z,4.00
2018-03-23T17:01:15.986Z,3.97
2018-03-23T17:03:43.676Z,4.63
2018-03-23T17:06:11.388Z,3.47
2018-03-23T17:08:39.099Z,3.27
2018-03-23T17:11:06.737Z,3.00
2018-03-23T17:13:34.372Z,3.50
2018-03-23T17:16:02.189Z,4.00
2018-03-23T17:18:29.854Z,3.60
2018-03-23T17:20:57.514Z,3.43
2018-03-23T17:23:25.131Z,3.30
2018-03-23T17:25:52.733Z,3.50
2018-03-23T17:28:20.499Z,4.23
2018-03-23T17:30:48.418Z,3.30
2018-03-23T17:33:15.978Z,3.40
2018-03-23T17:35:43.689Z,3.20
2018-03-23T17:38:11.441Z,3.70
2018-03-23T17:40:39.111Z,3.60
2018-03-23T17:43:06.778Z,3.33
2018-03-23T17:45:34.544Z,3.27
2018-03-23T17:48:02.328Z,3.17
2018-03-23T17:50:30.072Z,5.37
2018-03-23T17:52:57.629Z,3.57
2018-03-23T17:55:25.300Z,3.73
2018-03-23T17:57:52.955Z,3.50
2018-03-23T18:00:20.680Z,5.07
2018-03-23T18:02:48.384Z,7.67
2018-03-23T18:05:16.020Z,42.13
2018-03-23T18:07:43.551Z,83.67
2018-03-23T18:10:11.271Z,27.57
2018-03-23T18:12:38.927Z,257.50
2018-03-23T18:15:06.793Z,111.90
2018-03-23T18:17:34.778Z,27.73
2018-03-23T18:20:02.425Z,12.47
2018-03-23T18:22:30.299Z,85.20
2018-03-23T18:24:58.064Z,36.03
2018-03-23T18:27:25.707Z,11.43
2018-03-23T18:29:53.444Z,6.33
2018-03-23T18:32:22.372Z,6.67
2018-03-23T18:34:50.035Z,5.97
2018-03-23T18:37:17.695Z,5.53
2018-03-23T18:39:45.256Z,6.90
2018-03-23T18:42:12.917Z,7.07
2018-03-23T18:44:40.682Z,10.90
2018-03-23T18:47:08.343Z,12.47
2018-03-23T18:49:36.073Z,21.87
2018-03-23T18:52:03.873Z,24.93
2018-03-23T18:54:31.542Z,12.90
2018-03-23T18:56:59.196Z,10.70
2018-03-23T18:59:26.859Z,13.57
2018-03-23T19:01:54.548Z,10.53
2018-03-23T19:04:22.180Z,9.83
2018-03-23T19:06:49.844Z,9.77
2018-03-23T19:09:17.505Z,8.53
2018-03-23T19:11:45.286Z,75.93
2018-03-23T19:14:13.649Z,110.70
2018-03-23T19:16:41.309Z,105.37
2018-03-23T19:19:08.919Z,74.93
2018-03-23T19:21:36.533Z,42.20
2018-03-23T19:24:04.312Z,23.20
2018-03-23T19:26:31.957Z,21.93
2018-03-23T19:28:59.621Z,28.33
2018-03-23T19:31:27.384Z,32.30
2018-03-23T19:33:55.004Z,28.13
2018-03-23T19:36:22.713Z,37.90
2018-03-23T19:38:50.367Z,34.13
2018-03-23T19:41:18.237Z,30.97
2018-03-23T19:43:45.814Z,34.00
2018-03-23T19:46:13.571Z,38.63
2018-03-23T19:48:41.528Z,43.17
2018-03-23T19:51:09.397Z,37.30
2018-03-23T19:53:37.976Z,43.70
2018-03-23T19:56:05.590Z,29.03
2018-03-23T19:58:33.301Z,27.67
2018-03-23T20:01:00.969Z,28.63
2018-03-23T20:03:28.727Z,22.67
2018-03-23T20:05:56.491Z,16.27
2018-03-23T20:08:24.152Z,16.90
2018-03-23T20:10:51.814Z,13.60
2018-03-23T20:13:19.582Z,15.13
2018-03-23T20:15:47.447Z,14.83
2018-03-23T20:18:20.843Z,13.23
2018-03-23T20:20:54.202Z,14.80
2018-03-23T20:23:24.973Z,13.63
2018-03-23T20:25:52.633Z,14.50
2018-03-23T20:28:25.932Z,20.63
2018-03-23T20:30:53.599Z,18.67
2018-03-23T20:33:21.353Z,32.03
2018-03-23T20:35:49.075Z,42.90
2018-03-23T20:38:16.780Z,46.27
2018-03-23T20:40:44.451Z,28.90
2018-03-23T20:43:12.112Z,23.47
2018-03-23T20:45:39.767Z,27.17
2018-03-23T20:48:07.324Z,26.97
2018-03-23T20:50:34.986Z,31.60
2018-03-23T20:53:02.756Z,29.23
2018-03-23T20:55:30.465Z,70.57
2018-03-23T20:57:58.074Z,61.87
2018-03-23T21:00:25.839Z,49.03
2018-03-23T21:02:53.734Z,47.93
2018-03-23T21:05:21.375Z,42.33
2018-03-23T21:07:49.903Z,31.73
2018-03-23T21:10:17.512Z,27.60
2018-03-23T21:12:47.334Z,25.30
2018-03-23T21:15:15.906Z,26.17
2018-03-23T21:17:43.449Z,19.20
2018-03-23T21:20:11.130Z,16.53
2018-03-23T21:22:39.822Z,16.23
2018-03-23T21:25:07.425Z,16.07
2018-03-23T21:27:39.552Z,15.13
2018-03-23T21:30:09.357Z,13.17
2018-03-23T21:32:37.936Z,15.60
2018-03-23T21:35:05.597Z,14.93
2018-03-23T21:37:33.125Z,17.97
2018-03-23T21:40:01.739Z,15.37
2018-03-23T21:42:29.519Z,15.50
2018-03-23T21:44:57.165Z,24.63
2018-03-23T21:47:24.931Z,21.77
2018-03-23T21:49:52.608Z,20.07
2018-03-23T21:52:20.151Z,13.37
2018-03-23T21:54:47.932Z,17.53
2018-03-23T21:57:15.600Z,15.93
2018-03-23T21:59:43.342Z,13.23
2018-03-23T22:02:11.022Z,18.63
2018-03-23T22:04:38.670Z,19.00
2018-03-23T22:07:06.327Z,17.13
2018-03-23T22:09:34.009Z,15.37
2018-03-23T22:12:01.753Z,17.20
2018-03-23T22:14:29.435Z,15.03
2018-03-23T22:16:57.202Z,19.50
2018-03-23T22:19:24.799Z,16.40
2018-03-23T22:21:52.502Z,15.17
2018-03-23T22:24:20.219Z,16.93
2018-03-23T22:26:47.934Z,17.10
2018-03-23T22:29:15.650Z,15.17
2018-03-23T22:31:43.380Z,13.80
2018-03-23T22:34:11.040Z,19.97
2018-03-23T22:36:38.733Z,12.90
2018-03-23T22:39:06.441Z,13.07
2018-03-23T22:41:34.126Z,10.77
2018-03-23T22:44:01.664Z,12.10
2018-03-23T22:46:29.354Z,11.40
2018-03-23T22:48:57.017Z,10.70
2018-03-23T22:51:24.649Z,11.70
2018-03-23T22:53:52.395Z,10.80
2018-03-23T22:56:20.077Z,11.70
2018-03-23T22:58:47.637Z,10.90
2018-03-23T23:01:16.628Z,13.40
2018-03-23T23:03:44.449Z,11.47
2018-03-23T23:06:12.312Z,10.37
2018-03-23T23:08:39.894Z,13.03
2018-03-23T23:11:07.541Z,11.47
2018-03-23T23:13:35.403Z,13.90
2018-03-23T23:16:03.067Z,17.20
2018-03-23T23:18:30.631Z,17.60
2018-03-23T23:20:58.394Z,17.77
2018-03-23T23:23:26.198Z,15.40
2018-03-23T23:25:54.016Z,15.33
2018-03-23T23:28:21.986Z,14.60
2018-03-23T23:30:49.752Z,21.03
2018-03-23T23:33:17.497Z,14.57
2018-03-23T23:35:45.251Z,16.43
2018-03-23T23:38:12.999Z,15.50
2018-03-23T23:40:40.708Z,13.70
2018-03-23T23:43:08.702Z,19.17
2018-03-23T23:45:36.384Z,14.03
2018-03-23T23:48:04.108Z,15.33
2018-03-23T23:50:31.764Z,14.13
2018-03-23T23:52:59.473Z,15.47
2018-03-23T23:55:27.092Z,14.53
2018-03-23T23:57:54.746Z,16.57
